Townville, Pennsylvania
Current Conditions -  °F | °C
As of 11:35 AM on Monday 26 Jan 2015 (Local Time) from KGKJ Reporting Station
Light Snow Light Snow  
Wind Chill:   Ceiling: 3100
Heat Index: 20°   Visibility: 0.75mi
Dew Point: 14°   Wind: 9mph
Humidity: 78%   Direction: 50°NE
Pressure: 29.76"   Gusts: NA
Location:  41.68°N, 79.88°W
Report Text: KGKJ 261635Z AUTO 05008KT 3/4SM -SN BKN031 OVC039 M07/M10 A2976 RMK AO2 P0000 T10671100 TSNO
Loading
Personal Weather Stations






























Interactive Weather Map New forecast layout! Learn more

10-Day Weather Forecast

Advertisements
Track Severe Weather on mobile